createdAt,value
2017-09-02T00:03:52.164Z,1020.8
2017-09-02T00:08:57.908Z,1020.8
2017-09-02T00:14:03.315Z,1020.8
2017-09-02T00:19:09.059Z,1020.7
2017-09-02T00:24:14.809Z,1020.7
2017-09-02T00:29:19.884Z,1020.7
2017-09-02T00:34:25.958Z,1020.8
2017-09-02T00:39:31.368Z,1020.7
2017-09-02T00:44:37.110Z,1020.7
2017-09-02T00:49:43.205Z,1020.7
2017-09-02T00:54:48.272Z,1020.7
2017-09-02T00:59:53.680Z,1020.6
2017-09-02T01:04:58.756Z,1020.7
2017-09-02T01:10:04.179Z,1020.7
2017-09-02T01:15:08.920Z,1020.7
2017-09-02T01:20:14.341Z,1020.7
2017-09-02T01:25:19.411Z,1020.7
2017-09-02T01:30:24.865Z,1020.7
2017-09-02T01:35:30.269Z,1020.6
2017-09-02T01:40:36.014Z,1020.5
2017-09-02T01:45:40.751Z,1020.5
2017-09-02T01:50:46.495Z,1020.4
2017-09-02T01:55:51.231Z,1020.5
2017-09-02T02:00:55.965Z,1020.4
2017-09-02T02:06:01.710Z,1020.4
2017-09-02T02:11:06.781Z,1020.4
2017-09-02T02:16:12.191Z,1020.4
2017-09-02T02:21:16.927Z,1020.3
2017-09-02T02:26:21.333Z,1020.4
2017-09-02T02:31:26.739Z,1020.3
2017-09-02T02:36:31.808Z,1020.3
2017-09-02T02:41:36.540Z,1020.2
2017-09-02T02:46:41.944Z,1020.3
2017-09-02T02:51:47.023Z,1020.3
2017-09-02T02:56:53.097Z,1020.3
2017-09-02T03:01:58.504Z,1020.3
2017-09-02T03:07:03.909Z,1020.3
2017-09-02T03:12:08.648Z,1020.2
2017-09-02T03:17:14.383Z,1020.2
2017-09-02T03:22:20.125Z,1020.2
2017-09-02T03:27:25.202Z,1020.2
2017-09-02T03:32:30.273Z,1020.2
2017-09-02T03:37:35.340Z,1020.2
2017-09-02T03:42:40.749Z,1020.2
2017-09-02T03:47:46.490Z,1020.2
2017-09-02T03:52:51.893Z,1020.2
2017-09-02T03:57:57.634Z,1020.2
2017-09-02T04:03:03.055Z,1020.2
2017-09-02T04:08:08.109Z,1020.2
2017-09-02T04:13:13.513Z,1020.3
2017-09-02T04:18:18.923Z,1020.3
2017-09-02T04:23:24.331Z,1020.3
2017-09-02T04:28:28.732Z,1020.3
2017-09-02T04:33:33.803Z,1020.4
2017-09-02T04:38:38.871Z,1020.4
2017-09-02T04:43:43.611Z,1020.5
2017-09-02T04:48:48.350Z,1020.4
2017-09-02T04:53:53.755Z,1020.4
2017-09-02T04:58:58.492Z,1020.5
2017-09-02T05:04:03.915Z,1020.4
2017-09-02T05:09:08.984Z,1020.4
2017-09-02T05:14:14.393Z,1020.4
2017-09-02T05:19:20.133Z,1020.4
2017-09-02T05:24:26.219Z,1020.4
2017-09-02T05:29:31.626Z,1020.5
2017-09-02T05:34:37.364Z,1020.5
2017-09-02T05:39:42.434Z,1020.5
2017-09-02T05:44:48.179Z,1020.6
2017-09-02T05:49:53.920Z,1020.5
2017-09-02T05:54:59.329Z,1020.6
2017-09-02T06:00:04.400Z,1020.6
2017-09-02T06:05:09.135Z,1020.6
2017-09-02T06:10:14.878Z,1020.6
2017-09-02T06:15:19.952Z,1020.5
2017-09-02T06:20:25.022Z,1020.6
2017-09-02T06:25:29.424Z,1020.6
2017-09-02T06:30:35.168Z,1020.6
2017-09-02T06:35:41.118Z,1020.6
2017-09-02T06:40:46.861Z,1020.6
2017-09-02T06:45:51.603Z,1020.6
2017-09-02T06:50:57.042Z,1020.7
2017-09-02T06:56:02.781Z,1020.6
2017-09-02T07:01:08.524Z,1020.7
2017-09-02T07:06:13.289Z,1020.6
2017-09-02T07:11:18.365Z,1020.7
2017-09-02T07:16:23.108Z,1020.7
2017-09-02T07:21:28.189Z,1020.7
2017-09-02T07:26:33.272Z,1020.7
2017-09-02T07:31:38.348Z,1020.7
2017-09-02T07:36:43.434Z,1020.7
2017-09-02T07:41:49.521Z,1020.8
2017-09-02T07:46:54.939Z,1020.8
2017-09-02T07:52:00.690Z,1020.8
2017-09-02T07:57:06.104Z,1020.8
2017-09-02T08:02:10.845Z,1020.8
2017-09-02T08:07:16.272Z,1020.8
2017-09-02T08:12:22.104Z,1020.7
2017-09-02T08:17:26.860Z,1020.7
2017-09-02T08:22:32.277Z,1020.7
2017-09-02T08:27:37.372Z,1020.7
2017-09-02T08:32:42.811Z,1020.7
2017-09-02T08:37:47.911Z,1020.7
2017-09-02T08:42:53.343Z,1020.8
2017-09-02T08:47:58.443Z,1020.8
2017-09-02T08:53:03.541Z,1020.8
2017-09-02T08:58:09.310Z,1020.8
2017-09-02T09:03:14.072Z,1020.8
2017-09-02T09:08:19.170Z,1020.8
2017-09-02T09:13:24.337Z,1020.8
2017-09-02T09:18:30.108Z,1020.8
2017-09-02T09:23:35.199Z,1020.9
2017-09-02T09:28:40.969Z,1020.8
2017-09-02T09:33:46.054Z,1020.8
2017-09-02T09:38:51.484Z,1020.8
2017-09-02T09:43:56.909Z,1020.8
2017-09-02T09:49:02.670Z,1020.7
2017-09-02T09:54:07.672Z,1020.8
2017-09-02T09:59:12.762Z,1020.8
2017-09-02T10:04:17.841Z,1020.7
2017-09-02T10:09:23.929Z,1020.7
2017-09-02T10:14:29.688Z,1020.7
2017-09-02T10:19:35.107Z,1020.6
2017-09-02T10:24:40.528Z,1020.6
2017-09-02T10:29:45.613Z,1020.6
2017-09-02T10:34:50.027Z,1020.6
2017-09-02T10:39:55.447Z,1020.5
2017-09-02T10:45:00.865Z,1020.5
2017-09-02T10:50:06.954Z,1020.5
2017-09-02T10:55:13.040Z,1020.5
2017-09-02T11:00:18.481Z,1020.4
2017-09-02T11:05:22.887Z,1020.3
2017-09-02T11:10:27.967Z,1020.3
2017-09-02T11:15:33.046Z,1020.4
2017-09-02T11:20:38.469Z,1020.4
2017-09-02T11:25:43.913Z,1020.4
2017-09-02T11:30:50.100Z,1020.3
2017-09-02T11:35:55.178Z,1020.3
2017-09-02T11:41:00.257Z,1020.3
2017-09-02T11:46:06.019Z,1020.3
2017-09-02T11:51:11.443Z,1020.2
2017-09-02T11:56:17.197Z,1020.1
2017-09-02T12:01:22.340Z,1020.2
2017-09-02T12:06:27.791Z,1020.2
2017-09-02T12:11:32.624Z,1020.1
2017-09-02T12:16:38.435Z,1020.1
2017-09-02T12:21:44.245Z,1020.1
2017-09-02T12:26:50.068Z,1020
2017-09-02T12:31:55.182Z,1020
2017-09-02T12:36:59.620Z,1020
2017-09-02T12:42:05.059Z,1020
2017-09-02T12:47:09.824Z,1019.9
2017-09-02T12:52:14.576Z,1019.8
2017-09-02T12:57:20.665Z,1019.9
2017-09-02T13:02:26.634Z,1019.9
2017-09-02T13:07:31.038Z,1019.9
2017-09-02T13:12:36.806Z,1019.9
2017-09-02T13:17:42.224Z,1019.9
2017-09-02T13:22:48.303Z,1019.9
2017-09-02T13:27:53.383Z,1019.8
2017-09-02T13:32:59.129Z,1019.8
2017-09-02T13:38:04.232Z,1019.8
2017-09-02T13:43:09.387Z,1019.7
2017-09-02T13:48:15.544Z,1019.8
2017-09-02T13:53:20.623Z,1019.7
2017-09-02T13:58:26.702Z,1019.7
2017-09-02T14:03:31.776Z,1019.7
2017-09-02T14:08:36.852Z,1019.7
2017-09-02T14:13:42.604Z,1019.7
2017-09-02T14:18:48.029Z,1019.8
2017-09-02T14:23:53.435Z,1019.8
2017-09-02T14:28:59.176Z,1019.7
2017-09-02T14:34:04.251Z,1019.6
2017-09-02T14:39:09.346Z,1019.6
2017-09-02T14:44:14.760Z,1019.6
2017-09-02T14:49:19.875Z,1019.7
2017-09-02T14:54:24.965Z,1019.7
2017-09-02T14:59:29.709Z,1019.7
2017-09-02T15:04:34.786Z,1019.7
2017-09-02T15:09:40.546Z,1019.8
2017-09-02T15:14:45.720Z,1019.8
2017-09-02T15:19:51.744Z,1019.8
2017-09-02T15:24:57.489Z,1019.7
2017-09-02T15:30:02.913Z,1019.8
2017-09-02T15:35:07.707Z,1019.7
2017-09-02T15:40:13.480Z,1019.7
2017-09-02T15:45:18.892Z,1019.7
2017-09-02T15:50:24.313Z,1019.7
2017-09-02T15:55:29.426Z,1019.7
2017-09-02T16:00:34.484Z,1019.7
2017-09-02T16:05:39.895Z,1019.7
2017-09-02T16:10:44.628Z,1019.7
2017-09-02T16:15:50.039Z,1019.8
2017-09-02T16:20:55.786Z,1019.7
2017-09-02T16:26:01.199Z,1019.8
2017-09-02T16:31:06.271Z,1019.8
2017-09-02T16:36:12.026Z,1019.8
2017-09-02T16:41:16.772Z,1019.7
2017-09-02T16:46:22.516Z,1019.8
2017-09-02T16:51:28.148Z,1019.8
2017-09-02T16:56:33.231Z,1019.7
2017-09-02T17:01:38.307Z,1019.8
2017-09-02T17:06:44.047Z,1019.9
2017-09-02T17:11:49.457Z,1019.8
2017-09-02T17:16:54.529Z,1019.9
2017-09-02T17:22:00.270Z,1019.9
2017-09-02T17:27:05.342Z,1019.9
2017-09-02T17:32:11.095Z,1019.9
2017-09-02T17:37:16.496Z,1020
2017-09-02T17:42:21.566Z,1019.9
2017-09-02T17:47:26.644Z,1019.9
2017-09-02T17:52:32.049Z,1020
2017-09-02T17:57:37.460Z,1020
2017-09-02T18:02:42.197Z,1020
2017-09-02T18:07:47.266Z,1020
2017-09-02T18:12:53.010Z,1020
2017-09-02T18:17:58.472Z,1020
2017-09-02T18:23:03.544Z,1019.9
2017-09-02T18:28:07.958Z,1020
2017-09-02T18:33:13.034Z,1020
2017-09-02T18:38:17.445Z,1020
2017-09-02T18:43:22.523Z,1020
2017-09-02T18:48:28.283Z,1020.1
2017-09-02T18:53:33.697Z,1020
2017-09-02T18:58:39.441Z,1020
2017-09-02T19:03:44.512Z,1020.1
2017-09-02T19:08:50.258Z,1020.1
2017-09-02T19:13:54.997Z,1020.2
2017-09-02T19:18:59.409Z,1020.1
2017-09-02T19:24:04.484Z,1020.1
2017-09-02T19:29:09.890Z,1020.1
2017-09-02T19:34:14.635Z,1020.1
2017-09-02T19:39:19.727Z,1020.1
2017-09-02T19:44:25.140Z,1020.1
2017-09-02T19:49:30.220Z,1020.1
2017-09-02T19:54:35.639Z,1020.1
2017-09-02T19:59:39.711Z,1020
2017-09-02T20:04:45.789Z,1020.1
2017-09-02T20:09:50.197Z,1020
2017-09-02T20:14:55.691Z,1020.2
2017-09-02T20:20:00.441Z,1020.2
2017-09-02T20:25:05.860Z,1020.2
2017-09-02T20:30:10.940Z,1020.1
2017-09-02T20:35:16.028Z,1020.1
2017-09-02T20:40:21.446Z,1020.1
2017-09-02T20:45:26.865Z,1020.1
2017-09-02T20:50:32.278Z,1020.1
2017-09-02T20:55:37.356Z,1020.1
2017-09-02T21:00:42.110Z,1020.1
2017-09-02T21:05:47.531Z,1020.1
2017-09-02T21:10:52.282Z,1020.1
2017-09-02T21:15:58.029Z,1020.1
2017-09-02T21:21:02.770Z,1020.1
2017-09-02T21:26:08.033Z,1020.2
2017-09-02T21:31:12.442Z,1020.1
2017-09-02T21:36:17.520Z,1020.1
2017-09-02T21:41:22.932Z,1020.2
2017-09-02T21:46:27.340Z,1020.2
2017-09-02T21:51:32.416Z,1020.2
2017-09-02T21:56:37.498Z,1020.2
2017-09-02T22:01:43.257Z,1020.1
2017-09-02T22:06:49.016Z,1020.1
2017-09-02T22:11:53.772Z,1020.1
2017-09-02T22:16:59.177Z,1020.1
2017-09-02T22:22:04.596Z,1020.1
2017-09-02T22:27:09.672Z,1020.1
2017-09-02T22:32:15.089Z,1020.2
2017-09-02T22:37:20.506Z,1020.2
2017-09-02T22:42:25.918Z,1020.2
2017-09-02T22:47:31.193Z,1020.2
2017-09-02T22:52:36.283Z,1020.2
2017-09-02T22:57:42.040Z,1020.3
2017-09-02T23:02:47.450Z,1020.3
2017-09-02T23:07:52.864Z,1020.2
2017-09-02T23:12:58.612Z,1020.3
2017-09-02T23:18:04.350Z,1020.3
2017-09-02T23:23:10.101Z,1020.2
2017-09-02T23:28:15.196Z,1020.2
2017-09-02T23:33:20.604Z,1020.1
2017-09-02T23:38:25.672Z,1020.2
2017-09-02T23:43:30.081Z,1020.2
2017-09-02T23:48:35.490Z,1020.2
2017-09-02T23:53:41.566Z,1020.1
2017-09-02T23:58:47.311Z,1020
